createdAt,value
2023-09-29T00:00:51.210Z,10.85
2023-09-29T00:06:53.082Z,10.98
2023-09-29T00:12:54.998Z,11.15
2023-09-29T00:18:57.513Z,10.80
2023-09-29T00:24:59.579Z,10.13
2023-09-29T00:31:01.582Z,11.05
2023-09-29T00:37:04.686Z,10.00
2023-09-29T00:43:06.970Z,9.45
2023-09-29T00:49:09.216Z,9.90
2023-09-29T00:55:14.855Z,11.05
2023-09-29T01:01:16.846Z,10.68
2023-09-29T01:07:19.012Z,10.15
2023-09-29T01:13:21.059Z,11.65
2023-09-29T01:19:23.087Z,9.93
2023-09-29T01:25:25.098Z,9.95
2023-09-29T01:31:26.958Z,10.23
2023-09-29T01:37:29.364Z,10.95
2023-09-29T01:43:32.462Z,11.07
2023-09-29T01:49:34.434Z,9.90
2023-09-29T01:55:36.359Z,9.80
2023-09-29T02:01:38.213Z,9.50
2023-09-29T02:07:40.946Z,10.23
2023-09-29T02:13:42.811Z,9.15
2023-09-29T02:19:44.634Z,9.38
2023-09-29T02:25:46.515Z,8.80
2023-09-29T02:31:48.341Z,9.43
2023-09-29T02:37:50.240Z,11.45
2023-09-29T02:43:52.071Z,12.00
2023-09-29T02:49:53.872Z,11.43
2023-09-29T02:55:55.659Z,12.02
2023-09-29T03:01:57.521Z,11.02
2023-09-29T03:07:59.793Z,13.70
2023-09-29T03:14:01.671Z,13.43
2023-09-29T03:20:09.764Z,12.38
2023-09-29T03:26:16.195Z,11.27
2023-09-29T03:32:18.484Z,15.23
2023-09-29T03:38:21.798Z,13.40
2023-09-29T03:44:24.299Z,12.35
2023-09-29T03:50:26.178Z,12.27
2023-09-29T03:56:28.144Z,12.32
2023-09-29T04:02:32.666Z,13.35
2023-09-29T04:08:34.635Z,12.60
2023-09-29T04:14:36.486Z,12.35
2023-09-29T04:20:38.446Z,12.05
2023-09-29T04:26:40.388Z,12.77
2023-09-29T04:32:42.474Z,12.27
2023-09-29T04:38:44.650Z,13.15
2023-09-29T04:44:46.630Z,12.15
2023-09-29T04:50:48.591Z,12.82
2023-09-29T04:56:50.452Z,11.95
2023-09-29T05:02:52.359Z,11.70
2023-09-29T05:08:54.338Z,11.15
2023-09-29T05:14:56.479Z,10.85
2023-09-29T05:20:58.386Z,10.77
2023-09-29T05:27:00.464Z,8.35
2023-09-29T05:33:02.598Z,7.22
2023-09-29T05:39:05.322Z,7.82
2023-09-29T05:45:08.204Z,7.60
2023-09-29T05:51:10.072Z,7.13
2023-09-29T05:57:11.978Z,6.78
2023-09-29T06:03:13.890Z,6.55
2023-09-29T06:09:15.912Z,6.78
2023-09-29T06:15:17.834Z,6.38
2023-09-29T06:21:19.718Z,6.28
2023-09-29T06:27:21.722Z,6.18
2023-09-29T06:33:27.046Z,6.30
2023-09-29T06:39:29.458Z,5.75
2023-09-29T06:45:51.757Z,5.72
2023-09-29T06:51:54.887Z,5.85
2023-09-29T06:57:56.804Z,5.95
2023-09-29T07:03:59.477Z,5.70
2023-09-29T07:10:02.491Z,5.78
2023-09-29T07:16:04.695Z,5.70
2023-09-29T07:22:06.566Z,5.55
2023-09-29T07:28:14.692Z,5.72
2023-09-29T07:34:16.894Z,5.68
2023-09-29T07:40:18.890Z,5.60
2023-09-29T07:46:20.873Z,5.45
2023-09-29T07:52:28.978Z,5.85
2023-09-29T07:58:30.939Z,5.60
2023-09-29T08:04:32.872Z,5.55
2023-09-29T08:10:35.021Z,5.40
2023-09-29T08:16:38.163Z,5.22
2023-09-29T08:22:41.794Z,5.40
2023-09-29T08:28:45.167Z,5.68
2023-09-29T08:34:47.105Z,5.50
2023-09-29T08:40:53.264Z,5.60
2023-09-29T08:47:02.687Z,5.45
2023-09-29T08:53:06.380Z,5.45
2023-09-29T08:59:08.260Z,5.20
2023-09-29T09:05:15.911Z,6.05
2023-09-29T09:17:20.020Z,5.40
2023-09-29T09:23:22.257Z,5.50
2023-09-29T09:29:24.395Z,4.93
2023-09-29T09:35:28.127Z,5.28
2023-09-29T09:41:30.078Z,4.97
2023-09-29T09:47:32.200Z,4.75
2023-09-29T09:53:37.903Z,5.00
2023-09-29T09:59:43.113Z,5.43
2023-09-29T10:05:54.465Z,5.72
2023-09-29T10:12:00.772Z,5.10
2023-09-29T10:18:19.182Z,5.07
2023-09-29T10:24:30.792Z,5.57
2023-09-29T10:30:32.681Z,4.50
2023-09-29T10:36:34.533Z,4.70
2023-09-29T10:42:39.454Z,4.55
2023-09-29T10:48:49.732Z,4.50
2023-09-29T10:54:58.027Z,4.35
2023-09-29T11:01:00.078Z,4.00
2023-09-29T11:07:04.063Z,4.43
2023-09-29T11:13:16.518Z,4.00
2023-09-29T11:19:18.525Z,4.30
2023-09-29T11:25:21.184Z,3.85
2023-09-29T11:31:23.130Z,4.03
2023-09-29T11:37:24.981Z,4.03
2023-09-29T11:43:27.259Z,4.05
2023-09-29T11:49:29.114Z,4.22
2023-09-29T11:55:31.451Z,4.72
2023-09-29T12:01:33.279Z,4.75
2023-09-29T12:07:36.683Z,4.28
2023-09-29T12:13:40.673Z,3.95
2023-09-29T12:19:42.436Z,4.13
2023-09-29T12:25:44.256Z,4.00
2023-09-29T12:31:46.355Z,3.97
2023-09-29T12:37:48.300Z,3.70
2023-09-29T12:43:50.132Z,4.00
2023-09-29T12:49:51.945Z,4.22
2023-09-29T12:55:54.070Z,4.10
2023-09-29T13:01:55.935Z,4.05
2023-09-29T13:07:57.758Z,3.90
2023-09-29T13:13:59.569Z,3.83
2023-09-29T13:20:01.670Z,3.97
2023-09-29T13:26:03.565Z,4.13
2023-09-29T13:32:05.416Z,4.28
2023-09-29T13:38:07.853Z,4.32
2023-09-29T13:44:09.963Z,4.30
2023-09-29T13:50:12.495Z,3.67
2023-09-29T13:56:14.826Z,4.07
2023-09-29T14:02:17.101Z,4.40
2023-09-29T14:08:20.368Z,3.80
2023-09-29T14:14:22.536Z,4.13
2023-09-29T14:20:26.532Z,3.40
2023-09-29T14:26:28.663Z,4.10
2023-09-29T14:32:30.561Z,3.95
2023-09-29T14:38:33.712Z,3.70
2023-09-29T14:44:35.685Z,4.47
2023-09-29T14:50:40.301Z,3.90
2023-09-29T14:56:42.132Z,4.60
2023-09-29T15:02:44.267Z,3.95
2023-09-29T15:08:46.566Z,4.50
2023-09-29T15:14:48.470Z,4.32
2023-09-29T15:20:51.901Z,4.75
2023-09-29T15:26:54.925Z,5.85
2023-09-29T15:32:56.930Z,5.45
2023-09-29T15:38:58.899Z,6.03
2023-09-29T15:45:00.906Z,5.88
2023-09-29T15:51:02.864Z,6.97
2023-09-29T15:57:04.893Z,5.85
2023-09-29T16:03:07.764Z,5.75
2023-09-29T16:09:10.449Z,5.80
2023-09-29T16:15:12.446Z,6.68
2023-09-29T16:21:19.496Z,6.03
2023-09-29T16:27:22.969Z,5.72
2023-09-29T16:33:27.143Z,6.25
2023-09-29T16:39:30.744Z,6.35
2023-09-29T16:45:32.740Z,6.32
2023-09-29T16:51:35.372Z,6.68
2023-09-29T16:57:37.414Z,6.10
2023-09-29T17:03:39.420Z,6.15
2023-09-29T17:09:41.327Z,6.30
2023-09-29T17:15:43.379Z,6.47
2023-09-29T17:21:45.284Z,7.20
2023-09-29T17:27:48.640Z,6.93
2023-09-29T17:33:50.614Z,8.82
2023-09-29T17:39:53.517Z,7.20
2023-09-29T17:46:00.777Z,10.73
2023-09-29T17:52:02.674Z,7.10
2023-09-29T17:58:04.695Z,10.95
2023-09-29T18:04:06.790Z,12.07
2023-09-29T18:10:09.578Z,9.00
2023-09-29T18:16:12.205Z,9.43
2023-09-29T18:22:14.242Z,7.85
2023-09-29T18:28:16.026Z,5.13
2023-09-29T18:34:17.858Z,4.65
2023-09-29T18:40:19.678Z,4.90
2023-09-29T18:46:21.635Z,7.57
2023-09-29T18:52:23.565Z,13.50
2023-09-29T18:58:25.559Z,20.48
2023-09-29T19:04:28.053Z,3.97
2023-09-29T19:10:29.904Z,3.83
2023-09-29T19:16:31.962Z,3.90
2023-09-29T19:22:33.862Z,6.45
2023-09-29T19:28:35.776Z,4.20
2023-09-29T19:34:37.673Z,3.83
2023-09-29T19:40:42.748Z,3.42
2023-09-29T19:46:44.715Z,3.55
2023-09-29T19:52:48.368Z,2.83
2023-09-29T19:58:53.780Z,2.17
2023-09-29T20:04:55.694Z,2.30
2023-09-29T20:10:57.780Z,1.88
2023-09-29T20:16:59.890Z,1.65
2023-09-29T20:23:03.562Z,1.92
2023-09-29T20:29:05.635Z,1.70
2023-09-29T20:35:08.172Z,2.00
2023-09-29T20:41:10.893Z,2.10
2023-09-29T20:47:13.079Z,2.25
2023-09-29T20:53:16.452Z,1.95
2023-09-29T20:59:18.546Z,2.03
2023-09-29T21:05:20.877Z,1.88
2023-09-29T21:11:22.946Z,2.35
2023-09-29T21:17:24.792Z,2.78
2023-09-29T21:23:26.653Z,2.92
2023-09-29T21:29:28.462Z,2.58
2023-09-29T21:35:30.572Z,2.95
2023-09-29T21:41:32.428Z,2.58
2023-09-29T21:47:34.438Z,2.60
2023-09-29T21:53:36.360Z,2.58
2023-09-29T21:59:38.188Z,2.40
2023-09-29T22:05:40.834Z,2.50
2023-09-29T22:11:42.730Z,2.42
2023-09-29T22:17:45.249Z,2.63
2023-09-29T22:23:48.001Z,2.70
2023-09-29T22:29:49.887Z,2.40
2023-09-29T22:35:51.800Z,2.47
2023-09-29T22:41:53.975Z,2.40
2023-09-29T22:47:55.991Z,2.90
2023-09-29T22:53:58.494Z,2.63
2023-09-29T23:00:02.153Z,2.42
2023-09-29T23:06:04.391Z,3.00
2023-09-29T23:12:06.577Z,2.60
2023-09-29T23:18:11.388Z,3.28
2023-09-29T23:24:13.304Z,2.53
2023-09-29T23:30:15.421Z,3.10
2023-09-29T23:36:20.792Z,2.80
2023-09-29T23:42:22.893Z,2.80
2023-09-29T23:48:25.295Z,3.70
2023-09-29T23:54:27.796Z,3.65
